Aéroport int. de Victoria, Colombie-Britannique

Conditions des dernières 24 heures

Ce tableau est un sommaire des conditions météo couvrant les dernières 24 heures. Ce sommaire inclut les paramètres suivants: température, humidité, point de rosée, direction et vitesse du vent, pression barométrique, facteur de refroidissement éolien ou indice humidex.
Date / Heure
(HAP)
Conditions Temp (°F) Humidite (%) Point de rose (°F) Vent (mph) Pression (pouces) Visibilité (miles)
01 septembre 2014
4:00 Généralement dégagé 53   86 49 O 3 30.1 30
3:00 Partiellement nuageux 54 85 50 E 3 30.0 30
2:00 Généralement nuageux 55 83 50 OSO 2 30.0 30
1:00 Généralement nuageux 60 73 51 N 2 30.0 30
0:00 Généralement nuageux 59 79 53 SSE 3 30.0 30
31 août 2014
23:00 Généralement nuageux 58 86 54 OSO 5 30.0 30
22:00 Généralement nuageux 58 87 54 SSE 6 30.0 30
21:00 Généralement nuageux 58 86 54 calme 30.0 30
20:00 Partiellement nuageux 60 82 54 calme 30.0 30
19:00 Généralement nuageux 61 78 55 S 2 30.0 30
18:00 Généralement nuageux 64 68 54 ENE 3 30.0 30
17:00 Généralement nuageux 62 72 53 E 6 30.0 30
16:00 Généralement nuageux 59 82 54 ESE 3 30.0 30
15:00 Généralement nuageux 59 83 54 SE 13 30.0 30
14:00 Généralement nuageux 61 77 53 SE 14 30.0 30
13:00 Généralement nuageux 61 76 53 SE 11 30.0 30
12:00 Généralement nuageux 66   62 53 ESE 9 30.0 30
11:00 Généralement nuageux 62 68 51 SE 9 30.0 30
10:00 Généralement nuageux 64 62 51 SO 3 30.0 30
9:00 Généralement nuageux 60 72 51 OSO 5 30.0 30
8:00 Généralement nuageux 58 77 51 O 7 30.0 30
7:00 Généralement nuageux 57 79 51 ONO 9 30.0 30
6:00 Généralement nuageux 57 78 50 ONO 9 30.0 30
5:00 Partiellement nuageux 57 82 51 O 7 30.0 30
4:00 Partiellement nuageux 58 76 51 O 7 30.0 30
N.D.
non disponible
 ↑ 
température la plus haute
 ↓ 
température la plus basse

Si vous désirez plus de données historiques sur les conditions météo, s.v.p. visitez Données climatologiques en ligne.